createdAt,value
2022-11-24T00:02:58.113Z,4.30
2022-11-24T00:06:11.147Z,4.30
2022-11-24T00:09:19.543Z,4.30
2022-11-24T00:12:27.638Z,4.30
2022-11-24T00:15:35.672Z,4.30
2022-11-24T00:18:45.315Z,4.30
2022-11-24T00:21:53.198Z,4.30
2022-11-24T00:25:01.699Z,4.30
2022-11-24T00:28:09.528Z,4.30
2022-11-24T00:31:23.813Z,4.26
2022-11-24T00:34:32.040Z,4.24
2022-11-24T00:37:40.919Z,4.20
2022-11-24T00:40:48.831Z,4.20
2022-11-24T00:43:57.825Z,4.20
2022-11-24T00:47:05.860Z,4.20
2022-11-24T00:50:15.411Z,4.20
2022-11-24T00:53:23.298Z,4.20
2022-11-24T00:56:32.883Z,4.20
2022-11-24T00:59:40.998Z,4.20
2022-11-24T01:02:49.218Z,4.20
2022-11-24T01:06:03.527Z,4.20
2022-11-24T01:09:13.490Z,4.20
2022-11-24T01:12:20.077Z,4.20
2022-11-24T01:15:30.382Z,4.20
2022-11-24T01:18:38.581Z,4.20
2022-11-24T01:21:46.629Z,4.20
2022-11-24T01:24:54.758Z,4.20
2022-11-24T01:28:02.835Z,4.10
2022-11-24T01:31:12.313Z,4.10
2022-11-24T01:34:20.394Z,4.10
2022-11-24T01:37:28.422Z,4.10
2022-11-24T01:40:36.525Z,4.00
2022-11-24T01:43:47.119Z,4.00
2022-11-24T01:47:00.325Z,4.00
2022-11-24T01:50:15.846Z,4.00
2022-11-24T01:53:27.017Z,4.00
2022-11-24T01:56:39.745Z,4.00
2022-11-24T01:59:50.556Z,3.98
2022-11-24T02:03:01.041Z,3.90
2022-11-24T02:06:14.496Z,3.90
2022-11-24T02:09:29.561Z,3.90
2022-11-24T02:12:39.306Z,3.90
2022-11-24T02:15:47.164Z,3.86
2022-11-24T02:18:55.787Z,3.80
2022-11-24T02:22:05.074Z,3.80
2022-11-24T02:25:24.761Z,3.80
2022-11-24T02:28:34.295Z,3.80
2022-11-24T02:31:47.812Z,3.80
2022-11-24T02:35:05.540Z,3.70
2022-11-24T02:38:16.337Z,3.70
2022-11-24T02:41:29.059Z,3.70
2022-11-24T02:44:42.436Z,3.60
2022-11-24T02:47:50.273Z,3.60
2022-11-24T02:50:58.296Z,3.60
2022-11-24T02:54:06.092Z,3.60
2022-11-24T02:57:15.500Z,3.50
2022-11-24T03:00:24.445Z,3.50
2022-11-24T03:03:34.587Z,3.50
2022-11-24T03:06:43.667Z,3.42
2022-11-24T03:09:51.661Z,3.40
2022-11-24T03:12:59.863Z,3.40
2022-11-24T03:16:12.044Z,3.40
2022-11-24T03:19:20.123Z,3.36
2022-11-24T03:22:28.438Z,3.30
2022-11-24T03:25:36.347Z,3.30
2022-11-24T03:28:46.360Z,3.22
2022-11-24T03:31:54.197Z,3.20
2022-11-24T03:35:02.400Z,3.20
2022-11-24T03:38:10.597Z,3.20
2022-11-24T03:41:18.791Z,3.20
2022-11-24T03:44:27.314Z,3.12
2022-11-24T03:47:35.573Z,3.10
2022-11-24T03:50:43.289Z,3.10
2022-11-24T03:53:51.192Z,3.10
2022-11-24T03:56:58.931Z,3.00
2022-11-24T04:00:10.929Z,3.00
2022-11-24T04:03:19.330Z,3.00
2022-11-24T04:06:27.384Z,3.00
2022-11-24T04:09:35.146Z,3.00
2022-11-24T04:12:46.152Z,2.96
2022-11-24T04:15:54.683Z,2.90
2022-11-24T04:19:02.793Z,2.90
2022-11-24T04:22:12.242Z,2.90
2022-11-24T04:25:20.524Z,2.90
2022-11-24T04:28:28.601Z,2.90
2022-11-24T04:31:36.893Z,2.90
2022-11-24T04:34:44.628Z,2.90
2022-11-24T04:37:52.573Z,2.90
2022-11-24T04:41:04.361Z,2.90
2022-11-24T04:44:12.484Z,2.86
2022-11-24T04:47:24.667Z,2.82
2022-11-24T04:50:33.166Z,2.80
2022-11-24T04:53:41.194Z,2.80
2022-11-24T04:56:53.541Z,2.86
2022-11-24T05:00:01.129Z,2.88
2022-11-24T05:03:09.650Z,2.90
2022-11-24T05:06:17.564Z,2.90
2022-11-24T05:09:36.927Z,2.90
2022-11-24T05:13:00.490Z,2.90
2022-11-24T05:16:09.698Z,2.90
2022-11-24T05:19:17.952Z,2.90
2022-11-24T05:22:27.159Z,2.90
2022-11-24T05:25:35.162Z,2.92
2022-11-24T05:28:44.053Z,3.00
2022-11-24T05:31:51.778Z,3.00
2022-11-24T05:35:02.449Z,3.00
2022-11-24T05:38:10.475Z,3.00
2022-11-24T05:41:18.733Z,3.00
2022-11-24T05:44:27.083Z,3.00
2022-11-24T05:47:36.124Z,3.00
2022-11-24T05:50:43.942Z,3.00
2022-11-24T05:53:52.719Z,3.00
2022-11-24T05:57:01.259Z,3.00
2022-11-24T06:00:13.032Z,3.00
2022-11-24T06:03:20.822Z,3.00
2022-11-24T06:06:29.009Z,3.00
2022-11-24T06:09:38.948Z,3.00
2022-11-24T06:12:47.208Z,3.00
2022-11-24T06:15:55.213Z,3.00
2022-11-24T06:19:03.978Z,3.04
2022-11-24T06:22:12.105Z,3.08
2022-11-24T06:25:20.800Z,3.10
2022-11-24T06:28:29.300Z,3.10
2022-11-24T06:31:39.105Z,3.10
2022-11-24T06:34:45.889Z,3.10
2022-11-24T06:37:54.705Z,3.10
2022-11-24T06:41:08.879Z,3.10
2022-11-24T06:44:17.287Z,3.10
2022-11-24T06:47:26.731Z,3.10
2022-11-24T06:50:35.996Z,3.20
2022-11-24T06:53:45.025Z,3.20
2022-11-24T06:56:56.826Z,3.20
2022-11-24T07:00:05.482Z,3.26
2022-11-24T07:03:19.840Z,3.30
2022-11-24T07:06:29.569Z,3.30
2022-11-24T07:09:40.002Z,3.30
2022-11-24T07:12:48.091Z,3.32
2022-11-24T07:15:56.341Z,3.40
2022-11-24T07:19:07.068Z,3.40
2022-11-24T07:22:15.196Z,3.40
2022-11-24T07:25:23.268Z,3.50
2022-11-24T07:28:31.727Z,3.52
2022-11-24T07:31:39.603Z,3.60
2022-11-24T07:34:47.840Z,3.70
2022-11-24T07:37:59.686Z,3.70
2022-11-24T07:41:12.086Z,3.80
2022-11-24T07:44:19.908Z,3.80
2022-11-24T07:47:29.013Z,3.84
2022-11-24T07:50:37.823Z,3.86
2022-11-24T07:53:46.889Z,3.90
2022-11-24T07:56:54.711Z,3.90
2022-11-24T08:00:02.914Z,3.90
2022-11-24T08:03:11.192Z,3.90
2022-11-24T08:06:27.242Z,3.90
2022-11-24T08:09:39.011Z,3.90
2022-11-24T08:12:47.439Z,3.90
2022-11-24T08:15:55.285Z,3.86
2022-11-24T08:19:04.052Z,3.86
2022-11-24T08:22:12.481Z,3.84
2022-11-24T08:25:24.739Z,3.82
2022-11-24T08:28:33.055Z,3.82
2022-11-24T08:31:42.936Z,3.86
2022-11-24T08:34:52.085Z,3.90
2022-11-24T08:38:04.761Z,3.90
2022-11-24T08:41:15.970Z,3.90
2022-11-24T08:44:24.228Z,3.90
2022-11-24T08:47:32.267Z,3.90
2022-11-24T08:50:42.017Z,3.90
2022-11-24T08:53:50.418Z,3.92
2022-11-24T08:56:58.953Z,4.00
2022-11-24T09:00:08.861Z,4.00
2022-11-24T09:03:18.021Z,4.10
2022-11-24T09:06:31.063Z,4.20
2022-11-24T09:09:39.274Z,4.30
2022-11-24T09:12:48.960Z,4.40
2022-11-24T09:15:57.281Z,4.40
2022-11-24T09:19:08.153Z,4.50
2022-11-24T09:22:17.054Z,4.50
2022-11-24T09:25:25.043Z,4.60
2022-11-24T09:28:33.060Z,4.56
2022-11-24T09:31:42.212Z,4.60
2022-11-24T09:34:51.297Z,4.60
2022-11-24T09:37:59.126Z,4.60
2022-11-24T09:41:40.927Z,4.60
2022-11-24T09:45:57.018Z,4.66
2022-11-24T09:48:58.497Z,4.70
2022-11-24T09:52:15.020Z,4.70
2022-11-24T09:55:34.402Z,4.80
2022-11-24T09:58:49.033Z,4.80
2022-11-24T10:01:57.538Z,4.82
2022-11-24T10:05:06.305Z,4.90
2022-11-24T10:08:33.039Z,4.90
2022-11-24T10:11:48.129Z,4.90
2022-11-24T10:15:22.794Z,4.94
2022-11-24T10:18:46.944Z,5.00
2022-11-24T10:22:17.745Z,5.00
2022-11-24T10:25:41.523Z,5.10
2022-11-24T10:28:56.893Z,5.12
2022-11-24T10:32:12.849Z,5.20
2022-11-24T10:35:29.209Z,5.30
2022-11-24T10:38:45.078Z,5.40
2022-11-24T10:42:03.955Z,5.60
2022-11-24T10:45:18.575Z,5.90
2022-11-24T10:48:31.616Z,6.20
2022-11-24T10:52:01.505Z,6.28
2022-11-24T10:55:09.565Z,6.30
2022-11-24T10:58:26.833Z,6.30
2022-11-24T11:01:38.894Z,6.30
2022-11-24T11:04:47.150Z,6.46
2022-11-24T11:08:17.573Z,6.70
2022-11-24T11:11:31.552Z,6.94
2022-11-24T11:14:40.276Z,7.04
2022-11-24T11:17:52.841Z,7.10
2022-11-24T11:21:03.658Z,7.04
2022-11-24T11:24:20.209Z,6.92
2022-11-24T11:27:29.497Z,6.90
2022-11-24T11:34:26.726Z,6.70
2022-11-24T11:37:37.642Z,6.60
2022-11-24T11:40:52.247Z,6.50
2022-11-24T11:44:16.991Z,6.40
2022-11-24T11:47:35.214Z,6.40
2022-11-24T11:51:21.648Z,6.30
2022-11-24T11:54:38.353Z,6.30
2022-11-24T11:57:58.690Z,6.30
2022-11-24T12:01:23.547Z,6.30
2022-11-24T12:04:49.923Z,6.20
2022-11-24T12:08:21.667Z,6.20
2022-11-24T12:11:41.888Z,6.20
2022-11-24T12:15:10.953Z,6.20
2022-11-24T12:22:15.248Z,6.20
2022-11-24T12:25:33.226Z,6.40
2022-11-24T12:29:04.316Z,6.60
2022-11-24T12:32:28.592Z,6.70
2022-11-24T12:35:44.150Z,6.84
2022-11-24T12:39:06.871Z,7.10
2022-11-24T12:42:42.224Z,7.10
2022-11-24T12:46:00.523Z,7.32
2022-11-24T12:49:21.967Z,7.34
2022-11-24T12:52:35.762Z,7.30
2022-11-24T12:55:45.849Z,7.18
2022-11-24T12:59:07.210Z,7.06
2022-11-24T13:02:35.773Z,7.00
2022-11-24T13:05:52.596Z,6.90
2022-11-24T13:09:09.026Z,6.86
2022-11-24T13:12:18.827Z,6.72
2022-11-24T13:15:45.035Z,6.70
2022-11-24T13:19:00.526Z,6.60
2022-11-24T13:22:27.380Z,6.50
2022-11-24T13:25:36.804Z,6.40
2022-11-24T13:29:23.917Z,6.30
2022-11-24T13:33:24.257Z,6.30
2022-11-24T13:37:33.667Z,6.20
2022-11-24T13:41:13.000Z,6.18
2022-11-24T13:44:29.493Z,6.10
2022-11-24T13:47:45.385Z,6.10
2022-11-24T13:51:24.797Z,6.10
2022-11-24T13:54:34.798Z,6.00
2022-11-24T13:57:47.008Z,6.00
2022-11-24T14:01:17.859Z,6.00
2022-11-24T14:07:58.350Z,6.10
2022-11-24T14:11:18.846Z,6.10
2022-11-24T14:14:28.226Z,6.08
2022-11-24T14:17:40.621Z,6.00
2022-11-24T14:20:48.366Z,6.00
2022-11-24T14:24:00.240Z,5.98
2022-11-24T14:27:14.928Z,5.90
2022-11-24T14:30:27.371Z,5.90
2022-11-24T14:33:35.058Z,5.80
2022-11-24T14:36:44.143Z,5.80
2022-11-24T14:39:52.230Z,5.80
2022-11-24T14:43:01.010Z,5.70
2022-11-24T14:46:18.903Z,5.70
2022-11-24T14:49:28.532Z,5.60
2022-11-24T14:52:37.529Z,5.60
2022-11-24T14:55:45.829Z,5.50
2022-11-24T14:58:54.437Z,5.50
2022-11-24T15:02:03.773Z,5.50
2022-11-24T15:05:12.113Z,5.50
2022-11-24T15:08:21.011Z,5.42
2022-11-24T15:11:31.276Z,5.40
2022-11-24T15:14:51.625Z,5.40
2022-11-24T15:18:02.248Z,5.40
2022-11-24T15:21:15.774Z,5.36
2022-11-24T15:24:27.309Z,5.30
2022-11-24T15:27:35.324Z,5.30
2022-11-24T15:30:43.554Z,5.20
2022-11-24T15:33:51.559Z,5.20
2022-11-24T15:36:59.226Z,5.10
2022-11-24T15:40:09.146Z,5.10
2022-11-24T15:43:24.139Z,5.04
2022-11-24T15:46:38.359Z,5.00
2022-11-24T15:49:46.235Z,5.00
2022-11-24T15:52:58.106Z,4.94
2022-11-24T15:56:10.496Z,4.90
2022-11-24T15:59:21.377Z,4.90
2022-11-24T16:02:29.662Z,4.90
2022-11-24T16:05:39.357Z,4.90
2022-11-24T16:08:47.193Z,4.80
2022-11-24T16:11:55.137Z,4.80
2022-11-24T16:15:02.780Z,4.80
2022-11-24T16:18:11.740Z,4.80
2022-11-24T16:21:19.475Z,4.80
2022-11-24T16:24:27.698Z,4.74
2022-11-24T16:27:35.410Z,4.70
2022-11-24T16:30:43.823Z,4.70
2022-11-24T16:33:51.622Z,4.70
2022-11-24T16:36:59.911Z,4.70
2022-11-24T16:40:15.315Z,4.60
2022-11-24T16:43:24.705Z,4.50
2022-11-24T16:46:32.996Z,4.48
2022-11-24T16:49:41.218Z,4.40
2022-11-24T16:52:48.927Z,4.30
2022-11-24T16:55:57.510Z,4.20
2022-11-24T16:59:06.529Z,4.18
2022-11-24T17:02:16.560Z,4.10
2022-11-24T17:05:24.577Z,4.00
2022-11-24T17:08:36.009Z,3.90
2022-11-24T17:11:44.539Z,3.80
2022-11-24T17:15:16.556Z,3.70
2022-11-24T17:18:25.276Z,3.60
2022-11-24T17:21:34.880Z,3.52
2022-11-24T17:24:42.673Z,3.50
2022-11-24T17:27:50.597Z,3.50
2022-11-24T17:30:59.154Z,3.50
2022-11-24T17:34:09.778Z,3.44
2022-11-24T17:37:17.492Z,3.40
2022-11-24T17:40:29.469Z,3.40
2022-11-24T17:43:37.568Z,3.40
2022-11-24T17:46:46.017Z,3.40
2022-11-24T17:49:53.726Z,3.30
2022-11-24T17:53:01.791Z,3.32
2022-11-24T17:56:13.217Z,3.32
2022-11-24T17:59:20.984Z,3.30
2022-11-24T18:02:28.933Z,3.30
2022-11-24T18:05:40.382Z,3.30
2022-11-24T18:08:49.483Z,3.30
2022-11-24T18:11:57.758Z,3.30
2022-11-24T18:15:05.930Z,3.30
2022-11-24T18:18:16.579Z,3.30
2022-11-24T18:21:24.629Z,3.30
2022-11-24T18:24:33.956Z,3.30
2022-11-24T18:27:43.185Z,3.30
2022-11-24T18:30:51.299Z,3.20
2022-11-24T18:33:58.987Z,3.20
2022-11-24T18:37:09.178Z,3.20
2022-11-24T18:40:19.228Z,3.20
2022-11-24T18:43:29.662Z,3.20
2022-11-24T18:46:37.726Z,3.10
2022-11-24T18:49:45.698Z,3.10
2022-11-24T18:52:54.012Z,3.04
2022-11-24T18:56:04.580Z,3.00
2022-11-24T18:59:12.427Z,3.00
2022-11-24T19:02:20.631Z,2.90
2022-11-24T19:05:29.153Z,2.88
2022-11-24T19:08:37.611Z,2.80
2022-11-24T19:11:48.204Z,2.80
2022-11-24T19:14:57.312Z,2.74
2022-11-24T19:18:05.332Z,2.70
2022-11-24T19:21:14.501Z,2.60
2022-11-24T19:24:22.389Z,2.60
2022-11-24T19:27:31.021Z,2.60
2022-11-24T19:30:39.313Z,2.60
2022-11-24T19:33:48.244Z,2.60
2022-11-24T19:36:56.593Z,2.58
2022-11-24T19:40:05.326Z,2.54
2022-11-24T19:43:14.037Z,2.50
2022-11-24T19:46:26.318Z,2.50
2022-11-24T19:49:34.137Z,2.50
2022-11-24T19:52:42.876Z,2.60
2022-11-24T19:55:50.943Z,2.60
2022-11-24T19:59:00.512Z,2.60
2022-11-24T20:02:11.062Z,2.60
2022-11-24T20:05:19.502Z,2.68
2022-11-24T20:08:29.173Z,2.70
2022-11-24T20:11:38.793Z,2.70
2022-11-24T20:14:46.771Z,2.70
2022-11-24T20:17:55.129Z,2.70
2022-11-24T20:21:09.972Z,2.70
2022-11-24T20:24:21.570Z,2.70
2022-11-24T20:27:29.569Z,2.70
2022-11-24T20:30:38.386Z,2.70
2022-11-24T20:33:47.125Z,2.70
2022-11-24T20:36:55.843Z,2.70
2022-11-24T20:40:04.392Z,2.70
2022-11-24T20:43:14.951Z,2.70
2022-11-24T20:46:26.204Z,2.70
2022-11-24T20:49:34.717Z,2.66
2022-11-24T20:52:42.580Z,2.60
2022-11-24T20:55:50.939Z,2.60
2022-11-24T20:59:00.009Z,2.52
2022-11-24T21:02:10.795Z,2.60
2022-11-24T21:05:18.708Z,2.60
2022-11-24T21:08:27.186Z,2.60
2022-11-24T21:11:36.218Z,2.60
2022-11-24T21:14:44.311Z,2.60
2022-11-24T21:17:52.076Z,2.60
2022-11-24T21:21:03.703Z,2.60
2022-11-24T21:24:16.636Z,2.60
2022-11-24T21:27:24.696Z,2.60
2022-11-24T21:30:34.640Z,2.54
2022-11-24T21:33:47.569Z,2.50
2022-11-24T21:36:55.521Z,2.50
2022-11-24T21:43:32.037Z,2.60
2022-11-24T21:46:44.988Z,2.60
2022-11-24T21:49:55.920Z,2.60
2022-11-24T21:53:04.537Z,2.50
2022-11-24T21:56:17.412Z,2.50
2022-11-24T21:59:26.312Z,2.50
2022-11-24T22:02:34.831Z,2.40
2022-11-24T22:05:42.941Z,2.40
2022-11-24T22:08:52.009Z,2.30
2022-11-24T22:11:59.829Z,2.30
2022-11-24T22:15:08.708Z,2.30
2022-11-24T22:18:16.932Z,2.30
2022-11-24T22:21:30.744Z,2.30
2022-11-24T22:24:38.977Z,2.30
2022-11-24T22:27:47.171Z,2.30
2022-11-24T22:30:55.135Z,2.30
2022-11-24T22:34:03.943Z,2.30
2022-11-24T22:37:12.241Z,2.30
2022-11-24T22:40:20.432Z,2.30
2022-11-24T22:43:30.113Z,2.30
2022-11-24T22:46:38.054Z,2.30
2022-11-24T22:49:47.740Z,2.30
2022-11-24T22:52:56.001Z,2.30
2022-11-24T22:56:09.591Z,2.30
2022-11-24T22:59:17.953Z,2.30
2022-11-24T23:02:25.940Z,2.20
2022-11-24T23:05:35.554Z,2.20
2022-11-24T23:08:44.480Z,2.20
2022-11-24T23:11:52.481Z,2.20
2022-11-24T23:15:00.746Z,2.20
2022-11-24T23:18:08.599Z,2.18
2022-11-24T23:21:20.631Z,2.14
2022-11-24T23:24:29.033Z,2.20
2022-11-24T23:27:37.363Z,2.10
2022-11-24T23:30:45.749Z,2.10
2022-11-24T23:33:53.555Z,2.10
2022-11-24T23:37:01.770Z,2.10
2022-11-24T23:40:12.641Z,2.10
2022-11-24T23:43:20.468Z,2.10
2022-11-24T23:46:29.684Z,2.04
2022-11-24T23:49:38.232Z,2.06
2022-11-24T23:52:46.418Z,2.00
2022-11-24T23:55:58.760Z,2.00
2022-11-24T23:59:07.651Z,1.90
